Piney Fork, Ohio
Current Conditions -  °F | °C
As of 8:53 PM on Tuesday 21 Oct 2014 (Local Time) from KHLG Reporting Station
Overcast Overcast  
Wind Chill: 43°   Ceiling: 1100
Heat Index: 47°   Visibility: 10mi
Dew Point: 43°   Wind: 9mph
Humidity: 86%   Direction: 310°NW
Pressure: 30.02"   Gusts: NA
Location:  40.27°N, 80.83°W
Report Text: KHLG 220053Z 31008KT 10SM OVC011 08/06 A3002 RMK AO2 CIG 009V013 SLP171 T00830061
Loading
Personal Weather Stations






























Interactive Weather Map New forecast layout! Learn more

10-Day Weather Forecast

Advertisements
Track Severe Weather on mobile